createdAt,value
2022-08-19T00:01:31.176Z,22.90
2022-08-19T00:04:00.058Z,22.80
2022-08-19T00:06:29.143Z,22.80
2022-08-19T00:09:01.038Z,22.80
2022-08-19T00:11:29.394Z,24.90
2022-08-19T00:13:58.013Z,22.50
2022-08-19T00:16:26.927Z,22.50
2022-08-19T00:18:56.178Z,22.40
2022-08-19T00:21:24.759Z,22.40
2022-08-19T00:23:52.727Z,22.40
2022-08-19T00:26:22.428Z,22.50
2022-08-19T00:28:50.510Z,22.50
2022-08-19T00:31:18.399Z,22.50
2022-08-19T00:33:46.282Z,22.50
2022-08-19T00:36:14.415Z,22.40
2022-08-19T00:38:44.185Z,22.40
2022-08-19T00:41:14.380Z,22.40
2022-08-19T00:43:43.750Z,24.30
2022-08-19T00:46:11.647Z,22.30
2022-08-19T00:48:39.581Z,22.30
2022-08-19T00:51:08.065Z,22.30
2022-08-19T00:53:36.342Z,22.30
2022-08-19T00:56:07.214Z,22.20
2022-08-19T00:58:36.931Z,22.20
2022-08-19T01:01:08.635Z,22.20
2022-08-19T01:03:56.584Z,22.20
2022-08-19T01:06:24.490Z,23.60
2022-08-19T01:08:52.396Z,22.10
2022-08-19T01:11:20.230Z,22.10
2022-08-19T01:13:49.986Z,22.00
2022-08-19T01:16:22.291Z,22.00
2022-08-19T01:18:51.107Z,22.00
2022-08-19T01:21:28.328Z,22.00
2022-08-19T01:23:57.539Z,22.70
2022-08-19T01:26:27.853Z,24.90
2022-08-19T01:29:00.917Z,21.80
2022-08-19T01:31:32.781Z,21.80
2022-08-19T01:34:02.968Z,21.80
2022-08-19T01:36:33.506Z,21.70
2022-08-19T01:39:05.383Z,21.70
2022-08-19T01:41:33.460Z,21.70
2022-08-19T01:44:10.296Z,21.70
2022-08-19T01:46:49.023Z,23.80
2022-08-19T01:49:18.183Z,23.30
2022-08-19T01:51:46.017Z,21.60
2022-08-19T01:54:23.383Z,21.90
2022-08-19T01:56:59.691Z,21.40
2022-08-19T01:59:27.619Z,21.40
2022-08-19T02:01:55.638Z,21.50
2022-08-19T02:04:24.332Z,21.50
2022-08-19T02:06:52.152Z,24.30
2022-08-19T02:09:21.428Z,21.50
2022-08-19T02:11:49.443Z,21.50
2022-08-19T02:14:17.263Z,21.40
2022-08-19T02:16:45.106Z,21.50
2022-08-19T02:19:13.032Z,21.40
2022-08-19T02:21:40.919Z,21.40
2022-08-19T02:24:08.885Z,21.40
2022-08-19T02:26:38.509Z,21.40
2022-08-19T02:29:06.383Z,21.30
2022-08-19T02:31:34.352Z,21.30
2022-08-19T02:34:02.688Z,21.30
2022-08-19T02:36:31.176Z,21.20
2022-08-19T02:38:58.302Z,21.20
2022-08-19T02:41:29.300Z,21.20
2022-08-19T02:44:30.357Z,21.20
2022-08-19T02:46:51.809Z,21.20
2022-08-19T02:49:21.075Z,21.00
2022-08-19T02:51:49.527Z,23.90
2022-08-19T02:54:17.864Z,21.00
2022-08-19T02:56:46.736Z,21.00
2022-08-19T02:59:16.105Z,21.00
2022-08-19T03:01:44.475Z,21.00
2022-08-19T03:04:16.517Z,21.00
2022-08-19T03:06:46.563Z,21.00
2022-08-19T03:09:15.251Z,21.00
2022-08-19T03:11:43.156Z,21.00
2022-08-19T03:14:12.461Z,21.00
2022-08-19T03:16:45.752Z,20.90
2022-08-19T03:19:14.482Z,20.90
2022-08-19T03:21:45.476Z,20.90
2022-08-19T03:24:14.447Z,20.90
2022-08-19T03:26:44.376Z,20.80
2022-08-19T03:29:13.216Z,20.80
2022-08-19T03:31:52.653Z,20.80
2022-08-19T03:34:23.847Z,20.80
2022-08-19T03:36:52.018Z,20.70
2022-08-19T03:39:20.600Z,20.70
2022-08-19T03:41:50.851Z,20.70
2022-08-19T03:44:39.579Z,20.60
2022-08-19T03:47:08.927Z,20.50
2022-08-19T03:49:37.498Z,20.60
2022-08-19T03:52:08.451Z,20.60
2022-08-19T03:54:37.068Z,20.60
2022-08-19T03:57:05.410Z,20.60
2022-08-19T03:59:36.161Z,20.60
2022-08-19T04:02:10.009Z,20.60
2022-08-19T04:04:39.462Z,20.50
2022-08-19T04:07:07.338Z,20.50
2022-08-19T04:09:37.159Z,20.50
2022-08-19T04:12:07.263Z,20.40
2022-08-19T04:14:36.426Z,21.20
2022-08-19T04:17:06.389Z,20.30
2022-08-19T04:19:37.033Z,20.30
2022-08-19T04:22:05.861Z,20.20
2022-08-19T04:24:35.569Z,20.20
2022-08-19T04:27:04.996Z,20.20
2022-08-19T04:29:33.092Z,20.10
2022-08-19T04:32:08.684Z,20.10
2022-08-19T04:35:01.470Z,20.00
2022-08-19T04:37:35.034Z,21.60
2022-08-19T04:40:23.491Z,19.90
2022-08-19T04:42:51.440Z,20.40
2022-08-19T04:45:19.303Z,19.90
2022-08-19T04:47:58.285Z,20.00
2022-08-19T04:50:28.618Z,20.00
2022-08-19T04:52:57.587Z,20.10
2022-08-19T04:55:27.312Z,20.10
2022-08-19T04:57:55.492Z,20.10
2022-08-19T05:00:23.673Z,20.00
2022-08-19T05:02:51.801Z,20.00
2022-08-19T05:05:20.712Z,20.00
2022-08-19T05:07:50.239Z,20.00
2022-08-19T05:10:18.104Z,20.00
2022-08-19T05:12:45.922Z,20.00
2022-08-19T05:15:13.941Z,20.00
2022-08-19T05:18:03.227Z,20.00
2022-08-19T05:20:48.832Z,20.00
2022-08-19T05:23:20.631Z,20.00
2022-08-19T05:25:51.146Z,20.70
2022-08-19T05:28:19.407Z,19.90
2022-08-19T05:30:49.000Z,19.90
2022-08-19T05:33:19.810Z,19.90
2022-08-19T05:35:49.243Z,19.80
2022-08-19T05:38:19.396Z,19.90
2022-08-19T05:40:47.871Z,20.10
2022-08-19T05:43:17.483Z,20.00
2022-08-19T05:45:46.048Z,20.00
2022-08-19T05:48:15.196Z,20.10
2022-08-19T05:50:43.834Z,20.10
2022-08-19T05:53:11.763Z,20.20
2022-08-19T05:55:41.052Z,20.20
2022-08-19T05:58:09.180Z,20.60
2022-08-19T06:00:37.775Z,20.30
2022-08-19T06:03:11.371Z,20.30
2022-08-19T06:05:44.785Z,20.40
2022-08-19T06:08:20.543Z,20.40
2022-08-19T06:11:14.981Z,20.60
2022-08-19T06:13:42.861Z,20.50
2022-08-19T06:16:10.877Z,20.60
2022-08-19T06:18:38.751Z,20.60
2022-08-19T06:21:07.065Z,20.70
2022-08-19T06:23:35.780Z,20.80
2022-08-19T06:26:05.203Z,20.90
2022-08-19T06:28:33.869Z,20.90
2022-08-19T06:31:07.348Z,21.00
2022-08-19T06:33:35.331Z,21.10
2022-08-19T06:36:03.338Z,21.20
2022-08-19T06:38:31.381Z,21.30
2022-08-19T06:41:07.786Z,21.30
2022-08-19T06:43:37.045Z,21.50
2022-08-19T06:46:14.661Z,21.40
2022-08-19T06:48:45.771Z,21.50
2022-08-19T06:51:19.159Z,21.70
2022-08-19T06:53:48.100Z,21.80
2022-08-19T06:56:20.131Z,21.80
2022-08-19T06:58:49.351Z,21.90
2022-08-19T07:01:17.288Z,22.00
2022-08-19T07:03:45.307Z,22.10
2022-08-19T07:06:43.690Z,22.10
2022-08-19T07:09:07.249Z,22.20
2022-08-19T07:11:36.764Z,22.20
2022-08-19T07:14:07.198Z,22.20
2022-08-19T07:16:48.119Z,22.30
2022-08-19T07:19:16.533Z,22.30
2022-08-19T07:21:48.865Z,22.30
2022-08-19T07:24:17.365Z,22.40
2022-08-19T07:26:47.067Z,22.40
2022-08-19T07:29:22.835Z,22.50
2022-08-19T07:31:52.880Z,22.50
2022-08-19T07:34:22.306Z,22.60
2022-08-19T07:36:50.628Z,23.70
2022-08-19T07:39:27.077Z,22.60
2022-08-19T07:41:57.221Z,22.70
2022-08-19T07:44:25.368Z,24.90
2022-08-19T07:46:55.095Z,25.70
2022-08-19T07:49:23.505Z,22.80
2022-08-19T07:51:54.412Z,22.90
2022-08-19T07:54:24.565Z,22.90
2022-08-19T07:56:53.832Z,23.00
2022-08-19T07:59:24.271Z,23.00
2022-08-19T08:01:52.336Z,23.10
2022-08-19T08:04:38.658Z,23.10
2022-08-19T08:07:24.477Z,23.10
2022-08-19T08:10:00.641Z,23.20
2022-08-19T08:12:35.388Z,23.20
2022-08-19T08:15:12.438Z,23.30
2022-08-19T08:17:49.837Z,23.30
2022-08-19T08:20:23.360Z,23.70
2022-08-19T08:23:09.015Z,23.50
2022-08-19T08:25:38.757Z,23.50
2022-08-19T08:28:09.942Z,23.60
2022-08-19T08:30:45.241Z,24.80
2022-08-19T08:33:13.644Z,23.80
2022-08-19T08:35:44.023Z,25.30
2022-08-19T08:38:12.004Z,23.90
2022-08-19T08:40:51.004Z,25.70
2022-08-19T08:43:32.399Z,26.60
2022-08-19T08:46:07.604Z,24.10
2022-08-19T08:48:41.915Z,24.10
2022-08-19T08:51:13.708Z,24.10
2022-08-19T08:53:55.952Z,24.20
2022-08-19T08:56:25.028Z,25.80
2022-08-19T08:59:00.198Z,24.60
2022-08-19T09:01:30.918Z,24.30
2022-08-19T09:04:03.095Z,24.40
2022-08-19T09:06:40.778Z,24.50
2022-08-19T09:09:18.609Z,24.70
2022-08-19T09:11:58.008Z,24.80
2022-08-19T09:14:54.334Z,24.90
2022-08-19T09:17:28.431Z,25.10
2022-08-19T09:20:05.498Z,25.30
2022-08-19T09:22:33.669Z,25.50
2022-08-19T09:25:01.955Z,25.60
2022-08-19T09:27:43.097Z,25.70
2022-08-19T09:30:15.796Z,26.50
2022-08-19T09:32:46.429Z,25.90
2022-08-19T09:35:16.386Z,26.10
2022-08-19T09:37:44.989Z,26.20
2022-08-19T09:40:15.356Z,26.30
2022-08-19T09:42:50.010Z,22.70
2022-08-19T09:45:21.967Z,26.40
2022-08-19T09:47:54.105Z,26.50
2022-08-19T09:50:24.850Z,26.50
2022-08-19T09:52:56.480Z,26.50
2022-08-19T09:55:31.680Z,29.50
2022-08-19T09:58:02.213Z,26.50
2022-08-19T10:00:31.747Z,26.50
2022-08-19T10:03:01.157Z,26.40
2022-08-19T10:05:48.581Z,26.40
2022-08-19T10:08:17.746Z,26.40
2022-08-19T10:10:47.075Z,26.40
2022-08-19T10:13:18.170Z,26.40
2022-08-19T10:15:47.816Z,26.40
2022-08-19T10:18:19.809Z,26.40
2022-08-19T10:20:51.539Z,26.50
2022-08-19T10:23:20.749Z,26.60
2022-08-19T10:25:49.202Z,29.10
2022-08-19T10:28:19.222Z,26.80
2022-08-19T10:30:48.155Z,27.80
2022-08-19T10:33:19.259Z,27.00
2022-08-19T10:36:08.807Z,28.20
2022-08-19T10:38:37.002Z,27.10
2022-08-19T10:41:13.167Z,27.20
2022-08-19T10:43:41.211Z,27.30
2022-08-19T10:46:14.130Z,27.40
2022-08-19T10:48:45.193Z,27.50
2022-08-19T10:51:31.932Z,27.60
2022-08-19T10:54:00.912Z,29.50
2022-08-19T10:56:47.313Z,27.90
2022-08-19T10:59:16.627Z,28.00
2022-08-19T11:01:46.215Z,28.10
2022-08-19T11:04:14.770Z,28.10
2022-08-19T11:06:44.455Z,28.20
2022-08-19T11:09:12.894Z,28.30
2022-08-19T11:11:41.876Z,28.30
2022-08-19T11:14:10.348Z,28.40
2022-08-19T11:16:39.957Z,29.60
2022-08-19T11:19:09.918Z,28.60
2022-08-19T11:21:40.537Z,28.50
2022-08-19T11:24:13.063Z,28.70
2022-08-19T11:26:43.326Z,28.50
2022-08-19T11:29:13.779Z,28.40
2022-08-19T11:31:43.772Z,28.50
2022-08-19T11:34:14.173Z,28.60
2022-08-19T11:36:44.990Z,28.70
2022-08-19T11:39:16.106Z,28.80
2022-08-19T11:41:44.177Z,28.80
2022-08-19T11:44:12.081Z,28.80
2022-08-19T11:46:40.300Z,28.90
2022-08-19T11:49:13.839Z,28.90
2022-08-19T11:51:44.106Z,29.00
2022-08-19T11:54:13.705Z,29.00
2022-08-19T11:56:43.904Z,29.10
2022-08-19T11:59:14.750Z,29.10
2022-08-19T12:01:43.584Z,29.30
2022-08-19T12:04:12.338Z,29.20
2022-08-19T12:06:42.567Z,29.30
2022-08-19T12:09:11.638Z,29.40
2022-08-19T12:11:41.519Z,30.20
2022-08-19T12:14:15.032Z,29.50
2022-08-19T12:16:44.809Z,31.20
2022-08-19T12:19:21.731Z,29.60
2022-08-19T12:21:51.670Z,29.60
2022-08-19T12:24:23.861Z,29.60
2022-08-19T12:26:54.002Z,29.60
2022-08-19T12:29:29.503Z,29.60
2022-08-19T12:32:02.261Z,31.10
2022-08-19T12:34:33.292Z,29.50
2022-08-19T12:37:04.248Z,29.50
2022-08-19T12:39:32.691Z,29.40
2022-08-19T12:42:00.628Z,29.40
2022-08-19T12:44:33.644Z,29.40
2022-08-19T12:47:03.508Z,29.40
2022-08-19T12:49:53.458Z,29.80
2022-08-19T12:52:23.422Z,29.20
2022-08-19T12:54:53.928Z,29.20
2022-08-19T12:57:27.012Z,29.10
2022-08-19T13:00:07.468Z,29.00
2022-08-19T13:02:38.721Z,29.10
2022-08-19T13:05:10.196Z,29.10
2022-08-19T13:07:39.434Z,29.10
2022-08-19T13:10:09.478Z,29.20
2022-08-19T13:12:37.483Z,29.20
2022-08-19T13:15:10.684Z,30.30
2022-08-19T13:17:39.947Z,29.30
2022-08-19T13:20:09.639Z,29.40
2022-08-19T13:22:37.694Z,29.40
2022-08-19T13:25:06.437Z,30.20
2022-08-19T13:27:34.813Z,29.40
2022-08-19T13:30:20.957Z,32.90
2022-08-19T13:33:07.785Z,29.50
2022-08-19T13:35:35.924Z,29.50
2022-08-19T13:38:05.662Z,30.90
2022-08-19T13:40:35.466Z,30.00
2022-08-19T13:43:12.436Z,29.20
2022-08-19T13:45:50.842Z,29.20
2022-08-19T13:48:19.997Z,29.10
2022-08-19T13:50:49.084Z,28.90
2022-08-19T13:53:17.960Z,28.80
2022-08-19T13:55:46.125Z,28.70
2022-08-19T13:58:15.435Z,28.70
2022-08-19T14:00:46.628Z,28.70
2022-08-19T14:03:14.745Z,28.50
2022-08-19T14:05:44.025Z,29.10
2022-08-19T14:08:15.153Z,28.30
2022-08-19T14:10:45.204Z,28.20
2022-08-19T14:13:16.050Z,29.40
2022-08-19T14:15:43.843Z,27.90
2022-08-19T14:18:12.464Z,27.80
2022-08-19T14:20:40.650Z,27.80
2022-08-19T14:23:10.007Z,27.60
2022-08-19T14:25:38.717Z,28.00
2022-08-19T14:28:08.526Z,27.20
2022-08-19T14:30:38.909Z,27.20
2022-08-19T14:33:09.177Z,27.00
2022-08-19T14:35:38.003Z,26.90
2022-08-19T14:38:07.496Z,26.90
2022-08-19T14:40:36.729Z,26.90
2022-08-19T14:43:06.307Z,26.90
2022-08-19T14:45:36.691Z,26.90
2022-08-19T14:48:05.539Z,26.90
2022-08-19T14:50:33.535Z,26.90
2022-08-19T14:53:09.010Z,26.90
2022-08-19T14:55:44.759Z,26.80
2022-08-19T14:58:28.964Z,28.50
2022-08-19T15:00:59.888Z,26.90
2022-08-19T15:03:27.974Z,26.90
2022-08-19T15:05:56.452Z,26.90
2022-08-19T15:08:25.864Z,26.90
2022-08-19T15:10:55.578Z,27.00
2022-08-19T15:13:23.520Z,26.90
2022-08-19T15:15:52.548Z,26.90
2022-08-19T15:20:50.103Z,27.10
2022-08-19T15:23:19.656Z,27.10
2022-08-19T15:25:47.991Z,27.30
2022-08-19T15:28:17.374Z,27.40
2022-08-19T15:30:45.406Z,27.40
2022-08-19T15:33:15.109Z,27.90
2022-08-19T15:35:43.302Z,28.20
2022-08-19T15:38:13.757Z,28.20
2022-08-19T15:40:42.895Z,28.50
2022-08-19T15:43:11.475Z,32.20
2022-08-19T15:45:44.338Z,29.00
2022-08-19T15:48:15.563Z,30.20
2022-08-19T15:50:43.390Z,30.60
2022-08-19T15:53:11.978Z,29.60
2022-08-19T15:55:44.807Z,29.70
2022-08-19T15:58:33.271Z,29.70
2022-08-19T16:01:23.812Z,29.70
2022-08-19T16:04:14.700Z,29.40
2022-08-19T16:06:47.146Z,29.20
2022-08-19T16:09:16.627Z,29.20
2022-08-19T16:11:46.112Z,29.10
2022-08-19T16:14:14.887Z,29.10
2022-08-19T16:16:47.195Z,29.00
2022-08-19T16:19:17.440Z,28.90
2022-08-19T16:21:49.227Z,28.90
2022-08-19T16:24:19.809Z,28.80
2022-08-19T16:26:49.355Z,28.80
2022-08-19T16:29:33.418Z,28.70
2022-08-19T16:32:06.194Z,28.60
2022-08-19T16:34:35.098Z,28.60
2022-08-19T16:37:03.441Z,28.60
2022-08-19T16:39:31.876Z,28.50
2022-08-19T16:42:00.967Z,28.50
2022-08-19T16:44:30.166Z,28.30
2022-08-19T16:46:59.851Z,28.30
2022-08-19T16:49:54.228Z,28.20
2022-08-19T16:54:47.959Z,28.10
2022-08-19T16:57:16.033Z,28.10
2022-08-19T16:59:48.772Z,28.10
2022-08-19T17:02:18.101Z,28.00
2022-08-19T17:04:57.234Z,28.00
2022-08-19T17:07:26.737Z,27.80
2022-08-19T17:09:55.270Z,27.80
2022-08-19T17:12:30.207Z,27.60
2022-08-19T17:15:01.554Z,27.50
2022-08-19T17:17:30.160Z,27.40
2022-08-19T17:20:00.429Z,27.30
2022-08-19T17:22:28.950Z,27.20
2022-08-19T17:24:58.231Z,27.20
2022-08-19T17:27:31.390Z,27.10
2022-08-19T17:30:02.576Z,27.00
2022-08-19T17:32:34.340Z,27.00
2022-08-19T17:35:04.319Z,26.90
2022-08-19T17:37:32.581Z,26.90
2022-08-19T17:40:00.743Z,26.90
2022-08-19T17:42:28.651Z,26.80
2022-08-19T17:44:59.412Z,26.80
2022-08-19T17:47:28.346Z,26.80
2022-08-19T17:49:56.714Z,26.80
2022-08-19T17:52:26.231Z,26.80
2022-08-19T17:59:50.545Z,26.80
2022-08-19T18:02:22.018Z,26.80
2022-08-19T18:07:21.604Z,26.70
2022-08-19T18:09:52.756Z,26.60
2022-08-19T18:12:24.794Z,26.60
2022-08-19T18:17:23.258Z,26.40
2022-08-19T18:19:51.534Z,26.50
2022-08-19T18:22:26.559Z,26.50
2022-08-19T18:24:57.150Z,26.50
2022-08-19T18:34:54.855Z,26.40
2022-08-19T18:37:22.850Z,26.40
2022-08-19T18:40:08.293Z,26.40
2022-08-19T18:42:59.631Z,26.40
2022-08-19T18:45:45.471Z,26.40
2022-08-19T18:51:01.279Z,26.30
2022-08-19T18:53:32.364Z,26.30
2022-08-19T18:56:00.480Z,26.30
2022-08-19T19:03:28.931Z,26.10
2022-08-19T19:05:56.807Z,26.10
2022-08-19T19:08:26.742Z,26.10
2022-08-19T19:10:55.893Z,26.10
2022-08-19T19:15:54.539Z,26.10
2022-08-19T19:18:22.611Z,26.10
2022-08-19T19:25:50.463Z,26.00
2022-08-19T19:28:25.591Z,26.00
2022-08-19T19:30:58.432Z,25.90
2022-08-19T19:33:26.651Z,25.90
2022-08-19T19:35:54.606Z,25.80
2022-08-19T19:38:22.364Z,25.80
2022-08-19T19:40:50.323Z,25.70
2022-08-19T19:43:18.160Z,25.70
2022-08-19T19:45:48.159Z,25.60
2022-08-19T19:48:17.312Z,25.50
2022-08-19T19:50:46.030Z,25.40
2022-08-19T19:53:22.075Z,25.40
2022-08-19T19:55:51.513Z,25.40
2022-08-19T19:58:21.247Z,25.40
2022-08-19T20:00:57.465Z,25.30
2022-08-19T20:03:27.250Z,25.20
2022-08-19T20:05:58.128Z,25.20
2022-08-19T20:08:43.894Z,25.10
2022-08-19T20:11:13.011Z,25.10
2022-08-19T20:13:41.250Z,25.00
2022-08-19T20:16:09.627Z,25.00
2022-08-19T20:18:40.119Z,24.90
2022-08-19T20:21:08.007Z,24.90
2022-08-19T20:23:36.306Z,24.90
2022-08-19T20:26:06.783Z,24.90
2022-08-19T20:28:45.713Z,24.80
2022-08-19T20:31:26.919Z,24.70
2022-08-19T20:33:59.452Z,24.60
2022-08-19T20:38:56.330Z,24.50
2022-08-19T20:41:24.738Z,24.60
2022-08-19T20:43:52.869Z,24.60
2022-08-19T20:46:21.062Z,24.60
2022-08-19T20:48:50.186Z,24.60
2022-08-19T20:51:21.101Z,24.60
2022-08-19T20:53:49.502Z,24.60
2022-08-19T20:56:17.677Z,24.60
2022-08-19T20:58:53.539Z,24.60
2022-08-19T21:01:24.054Z,24.50
2022-08-19T21:03:52.368Z,24.50
2022-08-19T21:06:22.303Z,24.50
2022-08-19T21:08:51.285Z,24.50
2022-08-19T21:11:20.760Z,24.60
2022-08-19T21:13:49.287Z,24.50
2022-08-19T21:16:17.921Z,24.50
2022-08-19T21:18:46.268Z,24.50
2022-08-19T21:21:14.487Z,24.40
2022-08-19T21:23:44.304Z,25.70
2022-08-19T21:26:12.535Z,24.50
2022-08-19T21:28:41.487Z,24.50
2022-08-19T21:31:11.378Z,24.50
2022-08-19T21:33:40.942Z,24.50
2022-08-19T21:36:09.959Z,24.50
2022-08-19T21:38:37.961Z,24.50
2022-08-19T21:41:08.198Z,24.50
2022-08-19T21:43:37.125Z,24.50
2022-08-19T21:46:05.815Z,24.50
2022-08-19T21:48:33.758Z,24.50
2022-08-19T21:51:01.672Z,24.50
2022-08-19T21:53:31.439Z,24.50
2022-08-19T21:56:01.409Z,24.50
2022-08-19T21:58:30.898Z,24.50
2022-08-19T22:00:59.219Z,24.40
2022-08-19T22:03:28.595Z,24.40
2022-08-19T22:05:56.529Z,24.40
2022-08-19T22:08:24.642Z,24.50
2022-08-19T22:10:52.659Z,24.50
2022-08-19T22:13:21.385Z,25.50
2022-08-19T22:15:51.883Z,24.50
2022-08-19T22:18:20.038Z,24.50
2022-08-19T22:20:48.821Z,24.40
2022-08-19T22:23:16.784Z,24.40
2022-08-19T22:25:47.216Z,24.40
2022-08-19T22:28:18.742Z,24.40
2022-08-19T22:30:51.113Z,24.30
2022-08-19T22:33:22.591Z,24.40
2022-08-19T22:35:52.440Z,24.40
2022-08-19T22:38:20.345Z,24.40
2022-08-19T22:40:50.305Z,26.60
2022-08-19T22:43:20.854Z,24.30
2022-08-19T22:45:50.332Z,24.30
2022-08-19T22:48:22.081Z,24.30
2022-08-19T22:51:05.086Z,24.30
2022-08-19T22:53:33.503Z,25.60
2022-08-19T22:56:01.627Z,24.30
2022-08-19T22:58:29.740Z,24.30
2022-08-19T23:00:57.952Z,24.30
2022-08-19T23:03:27.476Z,24.30
2022-08-19T23:05:56.303Z,24.30
2022-08-19T23:08:25.177Z,24.30
2022-08-19T23:10:53.137Z,24.30
2022-08-19T23:13:21.092Z,24.30
2022-08-19T23:15:49.096Z,24.30
2022-08-19T23:18:17.030Z,25.90
2022-08-19T23:20:46.448Z,24.80
2022-08-19T23:23:18.619Z,24.20
2022-08-19T23:25:47.742Z,24.30
2022-08-19T23:28:33.385Z,25.70
2022-08-19T23:31:02.933Z,27.30
2022-08-19T23:33:50.851Z,24.20
2022-08-19T23:36:22.484Z,24.20
2022-08-19T23:38:51.975Z,24.20
2022-08-19T23:41:22.027Z,24.20
2022-08-19T23:43:50.847Z,24.10
2022-08-19T23:46:27.421Z,26.40
2022-08-19T23:48:56.837Z,24.10
2022-08-19T23:51:26.501Z,24.20
2022-08-19T23:53:54.462Z,24.10
2022-08-19T23:56:22.623Z,24.10
2022-08-19T23:58:50.490Z,24.10
